Weather at Sawyer International Airport

Public forecast

Using degrees Fahrenheit for public forecast. Weather courtesy of forecast.io.

Current aviation weather report (METAR) for Sawyer International Airport

Retrieved 2020/09/18 14:47 UTC (48 minutes ago):

KSAW 181447Z 01009KT 10SM SCT050 10/M02 A3042

Aviation forecast (TAF) for Sawyer International Airport

Retrieved 2020/09/18 12:39 UTC (3 hours ago):

TAF KSAW 181136Z 1812/1912 VRB04KT P6SM SCT045 OVC060 FM181400 VRB04KT P6SM FEW080 FM181900 03005KT P6SM SCT040 FM182100 05005KT P6SM FEW200 FM190600 19005KT P6SM FEW180